createdAt,value
2017-11-23T00:00:05.080Z,1011.74
2017-11-23T00:01:07.248Z,1011.79
2017-11-23T00:02:09.131Z,1011.78
2017-11-23T00:03:11.007Z,1011.84
2017-11-23T00:04:12.885Z,1011.85
2017-11-23T00:05:27.031Z,1011.84
2017-11-23T00:06:28.913Z,1011.87
2017-11-23T00:07:30.792Z,1011.83
2017-11-23T00:08:32.667Z,1011.82
2017-11-23T00:09:34.493Z,1011.76
2017-11-23T00:10:36.304Z,1011.85
2017-11-23T00:11:38.180Z,1011.81
2017-11-23T00:12:40.056Z,1011.85
2017-11-23T00:13:41.933Z,1011.84
2017-11-23T00:14:56.078Z,1011.83
2017-11-23T00:15:57.957Z,1011.82
2017-11-23T00:16:59.836Z,1011.78
2017-11-23T00:18:01.713Z,1011.76
2017-11-23T00:19:03.529Z,1011.81
2017-11-23T00:20:05.339Z,1011.81
2017-11-23T00:21:07.213Z,1011.80
2017-11-23T00:22:09.091Z,1011.82
2017-11-23T00:23:10.969Z,1011.83
2017-11-23T00:24:25.114Z,1011.83
2017-11-23T00:25:26.993Z,1011.80
2017-11-23T00:26:28.880Z,1011.84
2017-11-23T00:27:30.749Z,1011.85
2017-11-23T00:28:32.565Z,1011.84
2017-11-23T00:29:34.377Z,1011.83
2017-11-23T00:30:36.252Z,1011.81
2017-11-23T00:31:38.134Z,1011.83
2017-11-23T00:32:40.006Z,1011.80
2017-11-23T00:33:54.160Z,1011.83
2017-11-23T00:34:56.030Z,1011.81
2017-11-23T00:35:57.913Z,1011.75
2017-11-23T00:36:59.793Z,1011.76
2017-11-23T00:38:01.612Z,1011.70
2017-11-23T00:39:03.418Z,1011.70
2017-11-23T00:40:05.294Z,1011.72
2017-11-23T00:41:07.174Z,1011.71
2017-11-23T00:42:09.070Z,1011.67
2017-11-23T00:43:23.198Z,1011.71
2017-11-23T00:44:25.080Z,1011.73
2017-11-23T00:45:26.956Z,1011.71
2017-11-23T00:46:28.832Z,1011.68
2017-11-23T00:47:30.647Z,1011.71
2017-11-23T00:48:32.459Z,1011.79
2017-11-23T00:49:34.333Z,1011.76
2017-11-23T00:50:36.209Z,1011.74
2017-11-23T00:51:38.088Z,1011.71
2017-11-23T00:52:52.235Z,1011.71
2017-11-23T00:53:54.115Z,1011.68
2017-11-23T00:54:55.992Z,1011.77
2017-11-23T00:55:57.879Z,1011.72
2017-11-23T00:56:59.686Z,1011.71
2017-11-23T00:58:01.497Z,1011.74
2017-11-23T00:59:03.373Z,1011.73
2017-11-23T01:00:05.251Z,1011.74
2017-11-23T01:01:07.135Z,1011.75
2017-11-23T01:02:21.276Z,1011.69
2017-11-23T01:03:23.155Z,1011.75
2017-11-23T01:04:25.033Z,1011.71
2017-11-23T01:05:26.910Z,1011.78
2017-11-23T01:06:28.724Z,1011.79
2017-11-23T01:07:30.540Z,1011.74
2017-11-23T01:08:32.406Z,1011.77
2017-11-23T01:09:34.281Z,1011.78
2017-11-23T01:10:36.158Z,1011.79
2017-11-23T01:11:50.305Z,1011.77
2017-11-23T01:12:52.183Z,1011.75
2017-11-23T01:13:54.060Z,1011.72
2017-11-23T01:14:55.937Z,1011.74
2017-11-23T01:15:57.751Z,1011.68
2017-11-23T01:16:59.561Z,1011.71
2017-11-23T01:18:01.436Z,1011.69
2017-11-23T01:19:03.313Z,1011.70
2017-11-23T01:20:05.189Z,1011.76
2017-11-23T01:21:19.336Z,1011.70
2017-11-23T01:22:21.214Z,1011.69
2017-11-23T01:23:23.093Z,1011.73
2017-11-23T01:24:24.970Z,1011.73
2017-11-23T01:25:26.785Z,1011.68
2017-11-23T01:26:28.595Z,1011.70
2017-11-23T01:27:30.468Z,1011.67
2017-11-23T01:28:32.347Z,1011.69
2017-11-23T01:29:34.225Z,1011.72
2017-11-23T01:30:48.357Z,1011.75
2017-11-23T01:31:50.262Z,1011.71
2017-11-23T01:32:52.141Z,1011.74
2017-11-23T01:33:54.019Z,1011.70
2017-11-23T01:34:55.842Z,1011.68
2017-11-23T01:35:57.647Z,1011.69
2017-11-23T01:36:59.524Z,1011.69
2017-11-23T01:38:01.400Z,1011.70
2017-11-23T01:39:03.279Z,1011.73
2017-11-23T01:40:17.427Z,1011.70
2017-11-23T01:41:19.302Z,1011.73
2017-11-23T01:42:21.191Z,1011.71
2017-11-23T01:43:23.061Z,1011.68
2017-11-23T01:44:24.890Z,1011.64
2017-11-23T01:45:26.686Z,1011.69
2017-11-23T01:46:28.561Z,1011.72
2017-11-23T01:47:30.438Z,1011.68
2017-11-23T01:48:32.318Z,1011.73
2017-11-23T01:49:46.462Z,1011.73
2017-11-23T01:50:48.341Z,1011.76
2017-11-23T01:51:50.220Z,1011.71
2017-11-23T01:52:52.096Z,1011.77
2017-11-23T01:53:53.916Z,1011.77
2017-11-23T01:54:55.721Z,1011.73
2017-11-23T01:55:57.594Z,1011.76
2017-11-23T01:56:59.471Z,1011.78
2017-11-23T01:58:01.350Z,1011.72
2017-11-23T01:59:15.545Z,1011.79
2017-11-23T02:00:17.424Z,1011.78
2017-11-23T02:01:19.301Z,1011.77
2017-11-23T02:02:21.178Z,1011.79
2017-11-23T02:03:22.993Z,1011.77
2017-11-23T02:04:24.805Z,1011.80
2017-11-23T02:05:26.680Z,1011.81
2017-11-23T02:06:28.558Z,1011.79
2017-11-23T02:07:30.431Z,1011.83
2017-11-23T02:08:44.577Z,1011.80
2017-11-23T02:09:46.456Z,1011.81
2017-11-23T02:10:48.335Z,1011.79
2017-11-23T02:11:50.211Z,1011.80
2017-11-23T02:12:52.025Z,1011.84
2017-11-23T02:13:53.837Z,1011.81
2017-11-23T02:14:55.711Z,1011.84
2017-11-23T02:15:57.591Z,1011.87
2017-11-23T02:16:59.467Z,1011.81
2017-11-23T02:18:13.613Z,1011.85
2017-11-23T02:19:15.492Z,1011.87
2017-11-23T02:20:17.370Z,1011.87
2017-11-23T02:21:19.247Z,1011.91
2017-11-23T02:22:21.066Z,1011.84
2017-11-23T02:23:22.877Z,1011.93
2017-11-23T02:24:24.755Z,1011.89
2017-11-23T02:25:26.632Z,1011.85
2017-11-23T02:26:28.509Z,1011.82
2017-11-23T02:27:42.706Z,1011.81
2017-11-23T02:28:44.583Z,1011.82
2017-11-23T02:29:46.464Z,1011.82
2017-11-23T02:30:48.339Z,1011.83
2017-11-23T02:31:50.161Z,1011.89
2017-11-23T02:32:51.971Z,1011.84
2017-11-23T02:33:53.852Z,1011.80
2017-11-23T02:34:55.727Z,1011.83
2017-11-23T02:35:57.605Z,1011.77
2017-11-23T02:37:11.733Z,1011.73
2017-11-23T02:38:13.611Z,1011.71
2017-11-23T02:39:15.490Z,1011.72
2017-11-23T02:40:17.370Z,1011.65
2017-11-23T02:41:19.190Z,1011.64
2017-11-23T02:42:20.998Z,1011.64
2017-11-23T02:43:22.875Z,1011.67
2017-11-23T02:44:24.751Z,1011.59
2017-11-23T02:45:26.629Z,1011.60
2017-11-23T02:46:40.776Z,1011.61
2017-11-23T02:47:42.653Z,1011.60
2017-11-23T02:48:44.534Z,1011.57
2017-11-23T02:49:46.411Z,1011.58
2017-11-23T02:50:48.226Z,1011.56
2017-11-23T02:51:50.038Z,1011.59
2017-11-23T02:52:51.915Z,1011.57
2017-11-23T02:53:53.790Z,1011.56
2017-11-23T02:54:55.667Z,1011.52
2017-11-23T02:56:09.815Z,1011.57
2017-11-23T02:57:11.690Z,1011.49
2017-11-23T02:58:13.574Z,1011.55
2017-11-23T02:59:15.449Z,1011.51
2017-11-23T03:00:17.266Z,1011.47
2017-11-23T03:01:19.075Z,1011.54
2017-11-23T03:02:20.952Z,1011.48
2017-11-23T03:03:22.829Z,1011.46
2017-11-23T03:04:24.708Z,1011.32
2017-11-23T03:05:38.857Z,1011.46
2017-11-23T03:06:40.730Z,1011.32
2017-11-23T03:07:42.612Z,1011.32
2017-11-23T03:08:44.489Z,1011.36
2017-11-23T03:09:46.306Z,1011.32
2017-11-23T03:10:48.120Z,1011.29
2017-11-23T03:11:50.000Z,1011.34
2017-11-23T03:12:51.876Z,1011.32
2017-11-23T03:13:53.754Z,1011.28
2017-11-23T03:15:07.901Z,1011.29
2017-11-23T03:16:09.783Z,1011.25
2017-11-23T03:17:11.660Z,1011.23
2017-11-23T03:18:13.538Z,1011.20
2017-11-23T03:19:15.359Z,1011.24
2017-11-23T03:20:17.174Z,1011.28
2017-11-23T03:21:19.050Z,1011.29
2017-11-23T03:22:20.929Z,1011.30
2017-11-23T03:23:22.813Z,1011.33
2017-11-23T03:24:37.007Z,1011.33
2017-11-23T03:25:38.881Z,1011.35
2017-11-23T03:26:40.764Z,1011.35
2017-11-23T03:27:42.639Z,1011.32
2017-11-23T03:28:44.455Z,1011.31
2017-11-23T03:29:46.268Z,1011.34
2017-11-23T03:30:48.150Z,1011.29
2017-11-23T03:31:50.023Z,1011.35
2017-11-23T03:32:51.902Z,1011.28
2017-11-23T03:34:06.048Z,1011.33
2017-11-23T03:35:07.924Z,1011.35
2017-11-23T03:36:09.822Z,1011.38
2017-11-23T03:37:11.682Z,1011.40
2017-11-23T03:38:13.500Z,1011.42
2017-11-23T03:39:15.309Z,1011.45
2017-11-23T03:40:17.190Z,1011.46
2017-11-23T03:41:19.065Z,1011.52
2017-11-23T03:42:20.942Z,1011.52
2017-11-23T03:43:35.088Z,1011.51
2017-11-23T03:44:36.968Z,1011.55
2017-11-23T03:45:38.853Z,1011.56
2017-11-23T03:46:40.724Z,1011.56
2017-11-23T03:47:42.548Z,1011.59
2017-11-23T03:48:44.360Z,1011.57
2017-11-23T03:49:46.241Z,1011.58
2017-11-23T03:50:48.116Z,1011.59
2017-11-23T03:51:49.998Z,1011.64
2017-11-23T03:53:04.145Z,1011.62
2017-11-23T03:54:06.023Z,1011.58
2017-11-23T03:55:07.905Z,1011.53
2017-11-23T03:56:09.781Z,1011.55
2017-11-23T03:57:11.598Z,1011.58
2017-11-23T03:58:13.413Z,1011.53
2017-11-23T03:59:15.289Z,1011.55
2017-11-23T04:00:17.164Z,1011.53
2017-11-23T04:01:19.043Z,1011.50
2017-11-23T04:02:33.189Z,1011.46
2017-11-23T04:03:35.066Z,1011.43
2017-11-23T04:04:36.948Z,1011.39
2017-11-23T04:05:38.827Z,1011.31
2017-11-23T04:06:40.641Z,1011.28
2017-11-23T04:07:42.455Z,1011.27
2017-11-23T04:08:44.344Z,1011.29
2017-11-23T04:09:46.220Z,1011.26
2017-11-23T04:10:48.102Z,1011.22
2017-11-23T04:12:02.258Z,1011.28
2017-11-23T04:13:04.123Z,1011.20
2017-11-23T04:14:06.007Z,1011.20
2017-11-23T04:15:07.881Z,1011.16
2017-11-23T04:16:09.695Z,1011.11
2017-11-23T04:17:11.507Z,1011.05
2017-11-23T04:18:13.384Z,1011.13
2017-11-23T04:19:15.265Z,1011.09
2017-11-23T04:20:17.141Z,1011.16
2017-11-23T04:21:31.288Z,1011.21
2017-11-23T04:22:33.167Z,1011.04
2017-11-23T04:23:35.048Z,1011.05
2017-11-23T04:24:36.927Z,1011.03
2017-11-23T04:25:38.742Z,1011.03
2017-11-23T04:26:40.556Z,1011.07
2017-11-23T04:27:42.435Z,1011.08
2017-11-23T04:28:44.314Z,1011.08
2017-11-23T04:29:46.206Z,1011.15
2017-11-23T04:31:00.332Z,1011.07
2017-11-23T04:32:02.221Z,1011.06
2017-11-23T04:33:04.092Z,1011.14
2017-11-23T04:34:05.967Z,1011.16
2017-11-23T04:35:07.781Z,1011.16
2017-11-23T04:36:09.592Z,1011.10
2017-11-23T04:37:11.470Z,1011.11
2017-11-23T04:38:13.345Z,1011.13
2017-11-23T04:39:15.225Z,1011.12
2017-11-23T04:40:29.371Z,1011.16
2017-11-23T04:41:31.249Z,1011.20
2017-11-23T04:42:33.130Z,1011.18
2017-11-23T04:43:35.005Z,1011.22
2017-11-23T04:44:36.822Z,1011.17
2017-11-23T04:45:38.637Z,1011.17
2017-11-23T04:46:40.514Z,1011.19
2017-11-23T04:47:42.388Z,1011.15
2017-11-23T04:48:44.267Z,1011.19
2017-11-23T04:49:58.414Z,1011.10
2017-11-23T04:51:00.292Z,1011.16
2017-11-23T04:52:02.174Z,1011.21
2017-11-23T04:53:04.050Z,1011.14
2017-11-23T04:54:05.864Z,1011.12
2017-11-23T04:55:07.677Z,1011.04
2017-11-23T04:56:09.555Z,1010.98
2017-11-23T04:57:11.435Z,1011.13
2017-11-23T04:58:13.313Z,1011.12
2017-11-23T04:59:27.463Z,1011.01
2017-11-23T05:00:29.346Z,1011.02
2017-11-23T05:01:31.225Z,1011.00
2017-11-23T05:02:33.104Z,1011.01
2017-11-23T05:03:34.919Z,1011.05
2017-11-23T05:04:36.732Z,1010.99
2017-11-23T05:05:38.610Z,1010.97
2017-11-23T05:06:40.487Z,1011.06
2017-11-23T05:07:42.365Z,1010.99
2017-11-23T05:08:56.515Z,1011.05
2017-11-23T05:09:58.394Z,1011.00
2017-11-23T05:11:00.281Z,1010.99
2017-11-23T05:12:02.156Z,1010.93
2017-11-23T05:13:03.972Z,1010.91
2017-11-23T05:14:05.788Z,1010.98
2017-11-23T05:15:07.661Z,1011.07
2017-11-23T05:16:09.536Z,1011.07
2017-11-23T05:17:11.414Z,1011.07
2017-11-23T05:18:25.560Z,1011.08
2017-11-23T05:19:27.500Z,1011.17
2017-11-23T05:20:29.359Z,1011.15
2017-11-23T05:21:31.238Z,1011.25
2017-11-23T05:22:33.052Z,1011.24
2017-11-23T05:23:34.862Z,1011.28
2017-11-23T05:24:36.740Z,1011.27
2017-11-23T05:25:38.616Z,1011.28
2017-11-23T05:26:40.509Z,1011.30
2017-11-23T05:27:54.647Z,1011.37
2017-11-23T05:28:56.521Z,1011.46
2017-11-23T05:29:58.412Z,1011.42
2017-11-23T05:31:00.277Z,1011.49
2017-11-23T05:32:02.093Z,1011.43
2017-11-23T05:33:03.905Z,1011.45
2017-11-23T05:34:05.784Z,1011.43
2017-11-23T05:35:07.657Z,1011.50
2017-11-23T05:36:09.541Z,1011.42
2017-11-23T05:37:23.689Z,1011.45
2017-11-23T05:38:25.566Z,1011.41
2017-11-23T05:39:27.452Z,1011.40
2017-11-23T05:40:29.326Z,1011.37
2017-11-23T05:41:31.141Z,1011.46
2017-11-23T05:42:32.956Z,1011.46
2017-11-23T05:43:34.835Z,1011.43
2017-11-23T05:44:36.710Z,1011.48
2017-11-23T05:45:38.587Z,1011.47
2017-11-23T05:46:52.782Z,1011.49
2017-11-23T05:47:54.662Z,1011.53
2017-11-23T05:48:56.543Z,1011.53
2017-11-23T05:49:58.421Z,1011.56
2017-11-23T05:51:00.237Z,1011.59
2017-11-23T05:52:02.051Z,1011.63
2017-11-23T05:53:03.931Z,1011.62
2017-11-23T05:54:05.805Z,1011.62
2017-11-23T05:55:07.689Z,1011.67
2017-11-23T05:56:21.837Z,1011.67
2017-11-23T05:57:23.715Z,1011.67
2017-11-23T05:58:25.598Z,1011.72
2017-11-23T05:59:27.478Z,1011.78
2017-11-23T06:00:29.290Z,1011.77
2017-11-23T06:01:31.103Z,1011.77
2017-11-23T06:02:32.987Z,1011.81
2017-11-23T06:03:34.857Z,1011.78
2017-11-23T06:04:36.735Z,1011.74
2017-11-23T06:05:50.934Z,1011.79
2017-11-23T06:06:52.811Z,1011.82
2017-11-23T06:07:54.692Z,1011.80
2017-11-23T06:08:56.571Z,1011.79
2017-11-23T06:09:58.375Z,1011.80
2017-11-23T06:11:00.218Z,1011.82
2017-11-23T06:12:02.100Z,1011.80
2017-11-23T06:13:03.984Z,1011.86
2017-11-23T06:14:05.864Z,1011.80
2017-11-23T06:15:20.010Z,1011.76
2017-11-23T06:16:21.888Z,1011.75
2017-11-23T06:17:23.773Z,1011.72
2017-11-23T06:18:25.647Z,1011.75
2017-11-23T06:19:27.467Z,1011.74
2017-11-23T06:20:29.283Z,1011.78
2017-11-23T06:21:31.163Z,1011.75
2017-11-23T06:22:33.040Z,1011.77
2017-11-23T06:23:34.924Z,1011.77
2017-11-23T06:24:49.070Z,1011.74
2017-11-23T06:25:50.952Z,1011.71
2017-11-23T06:26:52.834Z,1011.65
2017-11-23T06:27:54.710Z,1011.71
2017-11-23T06:28:56.531Z,1011.69
2017-11-23T06:29:58.343Z,1011.68
2017-11-23T06:31:00.225Z,1011.69
2017-11-23T06:32:02.104Z,1011.64
2017-11-23T06:33:03.988Z,1011.62
2017-11-23T06:34:18.139Z,1011.68
2017-11-23T06:35:20.017Z,1011.64
2017-11-23T06:36:21.902Z,1011.63
2017-11-23T06:37:23.782Z,1011.65
2017-11-23T06:38:25.600Z,1011.65
2017-11-23T06:39:27.416Z,1011.71
2017-11-23T06:40:29.296Z,1011.67
2017-11-23T06:41:31.175Z,1011.76
2017-11-23T06:42:33.055Z,1011.79
2017-11-23T06:43:47.213Z,1011.78
2017-11-23T06:44:49.092Z,1011.72
2017-11-23T06:45:50.975Z,1011.66
2017-11-23T06:46:52.852Z,1011.68
2017-11-23T06:47:54.673Z,1011.69
2017-11-23T06:48:56.489Z,1011.68
2017-11-23T06:49:58.371Z,1011.66
2017-11-23T06:51:00.248Z,1011.66
2017-11-23T06:52:02.129Z,1011.67
2017-11-23T06:53:16.278Z,1011.67
2017-11-23T06:54:18.157Z,1011.72
2017-11-23T06:55:20.045Z,1011.66
2017-11-23T06:56:21.924Z,1011.75
2017-11-23T06:57:23.749Z,1011.72
2017-11-23T06:58:25.564Z,1011.73
2017-11-23T06:59:27.442Z,1011.69
2017-11-23T07:00:29.326Z,1011.70
2017-11-23T07:01:31.206Z,1011.69
2017-11-23T07:02:45.356Z,1011.71
2017-11-23T07:03:47.235Z,1011.72
2017-11-23T07:04:49.120Z,1011.79
2017-11-23T07:05:50.999Z,1011.86
2017-11-23T07:06:52.817Z,1011.86
2017-11-23T07:07:54.635Z,1011.87
2017-11-23T07:08:56.516Z,1011.92
2017-11-23T07:09:58.399Z,1011.96
2017-11-23T07:11:00.278Z,1011.93
2017-11-23T07:12:14.428Z,1011.98
2017-11-23T07:13:16.308Z,1011.91
2017-11-23T07:14:18.193Z,1011.96
2017-11-23T07:15:20.073Z,1011.99
2017-11-23T07:16:21.894Z,1012.01
2017-11-23T07:17:23.709Z,1012.10
2017-11-23T07:18:25.590Z,1012.06
2017-11-23T07:19:27.471Z,1012.07
2017-11-23T07:20:29.351Z,1012.04
2017-11-23T07:21:43.506Z,1012.12
2017-11-23T07:22:45.386Z,1012.07
2017-11-23T07:23:47.271Z,1012.10
2017-11-23T07:24:49.152Z,1012.14
2017-11-23T07:25:50.971Z,1012.13
2017-11-23T07:26:52.785Z,1012.09
2017-11-23T07:27:54.665Z,1012.11
2017-11-23T07:28:56.546Z,1012.13
2017-11-23T07:29:58.427Z,1012.10
2017-11-23T07:31:12.578Z,1012.12
2017-11-23T07:32:14.458Z,1012.19
2017-11-23T07:33:16.343Z,1012.17
2017-11-23T07:34:18.224Z,1012.16
2017-11-23T07:35:20.042Z,1012.17
2017-11-23T07:36:21.861Z,1012.19
2017-11-23T07:37:23.741Z,1012.15
2017-11-23T07:38:25.629Z,1012.14
2017-11-23T07:39:27.518Z,1012.15
2017-11-23T07:40:41.712Z,1012.17
2017-11-23T07:41:43.597Z,1012.22
2017-11-23T07:42:45.484Z,1012.16
2017-11-23T07:43:47.366Z,1012.14
2017-11-23T07:44:49.188Z,1012.08
2017-11-23T07:45:51.008Z,1012.10
2017-11-23T07:46:52.890Z,1012.07
2017-11-23T07:47:54.772Z,1012.03
2017-11-23T07:48:56.656Z,1011.98
2017-11-23T07:50:10.863Z,1011.99
2017-11-23T07:51:12.744Z,1011.98
2017-11-23T07:52:14.626Z,1011.93
2017-11-23T07:53:16.510Z,1011.96
2017-11-23T07:54:18.334Z,1011.87
2017-11-23T07:55:20.152Z,1011.95
2017-11-23T07:56:22.036Z,1011.91
2017-11-23T07:57:23.919Z,1011.83
2017-11-23T07:58:25.809Z,1011.90
2017-11-23T07:59:40.007Z,1011.88
2017-11-23T08:00:41.889Z,1011.81
2017-11-23T08:01:43.775Z,1011.89
2017-11-23T08:02:45.661Z,1011.79
2017-11-23T08:03:47.483Z,1011.88
2017-11-23T08:04:49.301Z,1011.84
2017-11-23T08:05:51.182Z,1011.88
2017-11-23T08:06:53.066Z,1011.83
2017-11-23T08:07:54.950Z,1011.87
2017-11-23T08:09:09.101Z,1011.80
2017-11-23T08:10:10.983Z,1011.77
2017-11-23T08:11:12.869Z,1011.72
2017-11-23T08:12:14.750Z,1011.78
2017-11-23T08:13:16.572Z,1011.81
2017-11-23T08:14:18.392Z,1011.75
2017-11-23T08:15:20.272Z,1011.75
2017-11-23T08:16:22.158Z,1011.80
2017-11-23T08:17:24.048Z,1011.77
2017-11-23T08:18:38.195Z,1011.87
2017-11-23T08:19:40.078Z,1011.78
2017-11-23T08:20:41.962Z,1011.77
2017-11-23T08:21:43.845Z,1011.75
2017-11-23T08:22:45.668Z,1011.91
2017-11-23T08:23:47.491Z,1011.96
2017-11-23T08:24:49.370Z,1012.02
2017-11-23T08:25:51.253Z,1012.07
2017-11-23T08:26:53.138Z,1012.10
2017-11-23T08:28:07.291Z,1012.10
2017-11-23T08:29:09.173Z,1012.11
2017-11-23T08:30:11.056Z,1012.15
2017-11-23T08:31:12.936Z,1012.19
2017-11-23T08:32:14.757Z,1012.16
2017-11-23T08:33:16.574Z,1012.17
2017-11-23T08:34:18.458Z,1012.16
2017-11-23T08:35:20.343Z,1012.28
2017-11-23T08:36:22.226Z,1012.24
2017-11-23T08:37:36.380Z,1012.21
2017-11-23T08:38:38.263Z,1012.17
2017-11-23T08:39:40.151Z,1012.19
2017-11-23T08:40:42.034Z,1012.20
2017-11-23T08:41:43.861Z,1012.23
2017-11-23T08:42:45.682Z,1012.18
2017-11-23T08:43:47.559Z,1012.18
2017-11-23T08:44:49.438Z,1012.18
2017-11-23T08:45:51.323Z,1012.21
2017-11-23T08:47:05.479Z,1012.22
2017-11-23T08:48:07.359Z,1012.21
2017-11-23T08:49:09.247Z,1012.27
2017-11-23T08:50:11.134Z,1012.27
2017-11-23T08:51:12.954Z,1012.25
2017-11-23T08:52:14.774Z,1012.15
2017-11-23T08:53:16.657Z,1012.19
2017-11-23T08:54:18.539Z,1012.24
2017-11-23T08:55:20.423Z,1012.19
2017-11-23T08:56:34.576Z,1012.16
2017-11-23T08:57:36.460Z,1012.13
2017-11-23T08:58:38.345Z,1012.18
2017-11-23T08:59:40.229Z,1012.15
2017-11-23T09:00:42.057Z,1012.14
2017-11-23T09:01:43.875Z,1012.10
2017-11-23T09:02:45.776Z,1012.10
2017-11-23T09:03:47.645Z,1012.01
2017-11-23T09:04:49.527Z,1011.99
2017-11-23T09:06:03.681Z,1011.85
2017-11-23T09:07:05.563Z,1011.84
2017-11-23T09:08:07.449Z,1011.85
2017-11-23T09:09:09.331Z,1011.79
2017-11-23T09:10:11.166Z,1011.81
2017-11-23T09:11:12.980Z,1011.77
2017-11-23T09:12:14.862Z,1011.87
2017-11-23T09:13:16.746Z,1011.78
2017-11-23T09:14:18.634Z,1011.82
2017-11-23T09:15:32.789Z,1011.86
2017-11-23T09:16:34.671Z,1011.84
2017-11-23T09:17:36.558Z,1011.94
2017-11-23T09:18:38.439Z,1011.85
2017-11-23T09:19:40.270Z,1011.88
2017-11-23T09:20:42.084Z,1011.86
2017-11-23T09:21:43.969Z,1011.83
2017-11-23T09:22:45.852Z,1011.90
2017-11-23T09:23:47.739Z,1011.88
2017-11-23T09:25:01.894Z,1011.91
2017-11-23T09:26:03.778Z,1011.90
2017-11-23T09:27:05.670Z,1011.89
2017-11-23T09:28:07.545Z,1011.92
2017-11-23T09:29:09.367Z,1011.81
2017-11-23T09:30:11.191Z,1011.79
2017-11-23T09:31:13.075Z,1011.78
2017-11-23T09:32:14.920Z,1011.76
2017-11-23T09:33:16.744Z,1011.79
2017-11-23T09:34:30.950Z,1011.73
2017-11-23T09:35:32.835Z,1011.76
2017-11-23T09:36:34.721Z,1011.76
2017-11-23T09:37:36.603Z,1011.79
2017-11-23T09:38:38.432Z,1011.82
2017-11-23T09:39:40.254Z,1011.82
2017-11-23T09:40:42.138Z,1011.90
2017-11-23T09:41:44.022Z,1011.92
2017-11-23T09:42:45.909Z,1011.99
2017-11-23T09:44:00.063Z,1011.96
2017-11-23T09:45:01.948Z,1011.99
2017-11-23T09:46:03.833Z,1011.97
2017-11-23T09:47:05.715Z,1011.95
2017-11-23T09:48:07.542Z,1011.92
2017-11-23T09:49:09.371Z,1011.94
2017-11-23T09:50:11.248Z,1011.91
2017-11-23T09:51:13.134Z,1011.93
2017-11-23T09:52:15.019Z,1011.95
2017-11-23T09:53:29.173Z,1011.96
2017-11-23T09:54:31.058Z,1011.91
2017-11-23T09:55:32.963Z,1011.94
2017-11-23T09:56:34.830Z,1011.86
2017-11-23T09:57:36.674Z,1011.96
2017-11-23T09:58:38.477Z,1011.92
2017-11-23T09:59:40.361Z,1011.97
2017-11-23T10:00:42.250Z,1011.98
2017-11-23T10:01:44.128Z,1011.95
2017-11-23T10:02:58.283Z,1012.00
2017-11-23T10:04:00.169Z,1012.02
2017-11-23T10:05:02.055Z,1012.03
2017-11-23T10:06:03.941Z,1011.98
2017-11-23T10:07:05.768Z,1012.02
2017-11-23T10:08:07.597Z,1011.94
2017-11-23T10:09:09.472Z,1011.98
2017-11-23T10:10:11.355Z,1011.95
2017-11-23T10:11:13.239Z,1012.01
2017-11-23T10:12:27.401Z,1012.00
2017-11-23T10:13:29.285Z,1012.09
2017-11-23T10:14:31.170Z,1012.14
2017-11-23T10:15:33.380Z,1012.13
2017-11-23T10:16:35.180Z,1012.16
2017-11-23T10:17:37.005Z,1012.17
2017-11-23T10:18:38.888Z,1012.12
2017-11-23T10:19:40.774Z,1012.15
2017-11-23T10:20:42.664Z,1012.13
2017-11-23T10:21:56.816Z,1012.14
2017-11-23T10:22:58.698Z,1012.18
2017-11-23T10:24:00.584Z,1012.13
2017-11-23T10:25:02.468Z,1012.18
2017-11-23T10:26:04.293Z,1012.10
2017-11-23T10:27:06.115Z,1012.16
2017-11-23T10:28:07.999Z,1012.19
2017-11-23T10:29:09.882Z,1012.14
2017-11-23T10:30:11.772Z,1012.22
2017-11-23T10:31:25.923Z,1012.14
2017-11-23T10:32:27.805Z,1012.11
2017-11-23T10:33:29.693Z,1012.02
2017-11-23T10:34:31.577Z,1011.95
2017-11-23T10:35:33.402Z,1011.81
2017-11-23T10:36:35.225Z,1011.83
2017-11-23T10:37:37.113Z,1011.70
2017-11-23T10:38:38.994Z,1011.62
2017-11-23T10:39:40.879Z,1011.75
2017-11-23T10:40:55.083Z,1011.69
2017-11-23T10:41:56.968Z,1011.79
2017-11-23T10:42:58.856Z,1011.78
2017-11-23T10:44:00.744Z,1011.76
2017-11-23T10:45:02.571Z,1011.77
2017-11-23T10:46:04.393Z,1011.82
2017-11-23T10:47:06.279Z,1011.86
2017-11-23T10:48:08.159Z,1011.80
2017-11-23T10:49:10.051Z,1011.81
2017-11-23T10:50:24.207Z,1011.88
2017-11-23T10:51:26.093Z,1011.83
2017-11-23T10:52:27.980Z,1011.86
2017-11-23T10:53:29.865Z,1011.87
2017-11-23T10:54:31.696Z,1011.87
2017-11-23T10:55:33.512Z,1011.89
2017-11-23T10:56:35.402Z,1011.86
2017-11-23T10:57:37.277Z,1011.88
2017-11-23T10:58:39.165Z,1011.89
2017-11-23T10:59:53.324Z,1011.88
2017-11-23T11:00:55.214Z,1011.92
2017-11-23T11:01:57.096Z,1011.98
2017-11-23T11:02:58.982Z,1011.91
2017-11-23T11:04:00.807Z,1011.95
2017-11-23T11:05:02.628Z,1012.01
2017-11-23T11:06:04.514Z,1012.02
2017-11-23T11:07:06.396Z,1011.96
2017-11-23T11:08:08.283Z,1012.04
2017-11-23T11:09:22.438Z,1011.96
2017-11-23T11:10:24.323Z,1011.96
2017-11-23T11:11:26.210Z,1011.91
2017-11-23T11:12:28.094Z,1011.92
2017-11-23T11:13:29.921Z,1011.98
2017-11-23T11:14:31.742Z,1011.94
2017-11-23T11:15:33.627Z,1011.95
2017-11-23T11:16:35.509Z,1011.95
2017-11-23T11:17:37.395Z,1011.86
2017-11-23T11:18:51.550Z,1011.95
2017-11-23T11:19:53.433Z,1011.93
2017-11-23T11:20:55.322Z,1012.04
2017-11-23T11:21:57.208Z,1011.97
2017-11-23T11:22:59.032Z,1011.94
2017-11-23T11:24:00.854Z,1011.99
2017-11-23T11:25:02.785Z,1012.02
2017-11-23T11:26:04.678Z,1012.06
2017-11-23T11:27:06.553Z,1012.13
2017-11-23T11:28:20.710Z,1012.07
2017-11-23T11:29:22.594Z,1012.07
2017-11-23T11:30:24.481Z,1012.02
2017-11-23T11:31:26.365Z,1012.07
2017-11-23T11:32:28.189Z,1011.94
2017-11-23T11:33:30.053Z,1012.02
2017-11-23T11:34:31.875Z,1011.97
2017-11-23T11:35:33.781Z,1012.03
2017-11-23T11:36:35.715Z,1011.97
2017-11-23T11:37:49.933Z,1011.97
2017-11-23T11:38:51.817Z,1011.93
2017-11-23T11:39:53.705Z,1011.99
2017-11-23T11:40:55.592Z,1011.98
2017-11-23T11:41:57.417Z,1011.92
2017-11-23T11:42:59.242Z,1011.97
2017-11-23T11:44:01.126Z,1012.02
2017-11-23T11:45:03.010Z,1011.99
2017-11-23T11:46:04.855Z,1011.98
2017-11-23T11:47:19.011Z,1012.01
2017-11-23T11:48:20.898Z,1011.94
2017-11-23T11:49:22.784Z,1012.00
2017-11-23T11:50:24.668Z,1011.93
2017-11-23T11:51:26.493Z,1011.96
2017-11-23T11:52:28.315Z,1012.02
2017-11-23T11:53:30.201Z,1012.06
2017-11-23T11:54:32.091Z,1012.06
2017-11-23T11:55:33.979Z,1012.04
2017-11-23T11:56:48.134Z,1012.07
2017-11-23T11:57:50.018Z,1012.01
2017-11-23T11:58:51.906Z,1011.96
2017-11-23T11:59:53.789Z,1012.00
2017-11-23T12:00:55.616Z,1012.08
2017-11-23T12:01:57.439Z,1012.06
2017-11-23T12:02:59.323Z,1012.00
2017-11-23T12:04:01.208Z,1012.10
2017-11-23T12:05:03.091Z,1012.07
2017-11-23T12:06:17.247Z,1012.01
2017-11-23T12:07:19.129Z,1012.06
2017-11-23T12:08:21.017Z,1012.08
2017-11-23T12:09:22.902Z,1012.15
2017-11-23T12:10:24.727Z,1012.20
2017-11-23T12:11:26.553Z,1012.28
2017-11-23T12:12:28.442Z,1012.22
2017-11-23T12:13:30.321Z,1012.24
2017-11-23T12:14:32.205Z,1012.23
2017-11-23T12:15:46.366Z,1012.24
2017-11-23T12:16:48.249Z,1012.32
2017-11-23T12:17:50.138Z,1012.29
2017-11-23T12:18:52.022Z,1012.26
2017-11-23T12:19:53.845Z,1012.31
2017-11-23T12:20:55.667Z,1012.24
2017-11-23T12:21:57.554Z,1012.18
2017-11-23T12:22:59.439Z,1012.14
2017-11-23T12:24:01.327Z,1012.13
2017-11-23T12:25:15.477Z,1012.12
2017-11-23T12:26:17.361Z,1012.07
2017-11-23T12:27:19.249Z,1012.05
2017-11-23T12:28:21.152Z,1011.89
2017-11-23T12:29:22.958Z,1011.86
2017-11-23T12:30:24.779Z,1011.82
2017-11-23T12:31:26.664Z,1011.95
2017-11-23T12:32:28.558Z,1011.81
2017-11-23T12:33:30.431Z,1011.84
2017-11-23T12:34:44.584Z,1011.87
2017-11-23T12:35:46.475Z,1011.83
2017-11-23T12:36:48.359Z,1011.93
2017-11-23T12:37:50.238Z,1011.98
2017-11-23T12:38:52.067Z,1011.97
2017-11-23T12:39:53.888Z,1011.97
2017-11-23T12:40:55.775Z,1011.94
2017-11-23T12:41:57.657Z,1012.01
2017-11-23T12:42:59.544Z,1011.96
2017-11-23T12:44:13.701Z,1012.13